Time;durP1;ratioP1;P1;durP2;ratioP2;P2;SDS_P1;SDS_P2;PMS_P1;PMS_P2;Temp;Humidity;BMP_temperature;BMP_pressure;BME280_temperature;BME280_humidity;BME280_pressure;Samples;Min_cycle;Max_cycle;Signal;HPM_P1;HPM_P2
2022/02/22 00:01:54;;;;;;;;;;;5.20;1.00;;;;;;5051912;28;19921;-55
2022/02/22 00:04:20;;;;;;;;;;;5.20;1.00;;;;;;5052073;28;19921;-58
2022/02/22 00:06:47;;;;;;;;;;;5.10;1.00;;;;;;5051791;28;19964;-58
2022/02/22 00:09:13;;;;;;;;;;;5.10;1.00;;;;;;5051933;28;19921;-58
2022/02/22 00:11:41;;;;;;;;;;;5.10;1.00;;;;;;5051530;28;19928;-58
2022/02/22 00:14:08;;;;;;;;;;;5.10;1.00;;;;;;5051677;28;19924;-54
2022/02/22 00:16:34;;;;;;;;;;;5.10;1.00;;;;;;5051845;28;19966;-54
2022/02/22 00:19:01;;;;;;;;;;;5.20;1.00;;;;;;5051910;28;19921;-57
2022/02/22 00:21:27;;;;;;;;;;;5.20;1.00;;;;;;5051907;28;20402;-59
2022/02/22 00:23:54;;;;;;;;;;;5.20;1.00;;;;;;5051558;28;19920;-58
2022/02/22 00:26:20;;;;;;;;;;;5.30;1.00;;;;;;5051637;28;19924;-58
2022/02/22 00:28:48;;;;;;;;;;;5.30;1.00;;;;;;5051998;28;19921;-59
2022/02/22 00:31:15;;;;;;;;;;;5.30;1.00;;;;;;5052471;28;19975;-55
2022/02/22 00:33:41;;;;;;;;;;;5.30;1.00;;;;;;5052048;28;19947;-59
2022/02/22 00:36:08;;;;;;;;;;;5.30;1.00;;;;;;5052011;28;20032;-58
2022/02/22 00:38:34;;;;;;;;;;;5.30;1.00;;;;;;5052055;28;19966;-58
2022/02/22 00:41:02;;;;;;;;;;;5.30;1.00;;;;;;5051682;28;20365;-56
2022/02/22 00:43:29;;;;;;;;;;;5.30;1.00;;;;;;5051949;28;19941;-58
2022/02/22 00:45:57;;;;;;;;;;;5.30;1.00;;;;;;5052303;28;19920;-58
2022/02/22 00:48:23;;;;;;;;;;;5.30;1.00;;;;;;5052368;28;19928;-57
2022/02/22 00:50:50;;;;;;;;;;;5.30;1.00;;;;;;5051307;28;19924;-59
2022/02/22 00:53:16;;;;;;;;;;;5.30;1.00;;;;;;5052215;28;19975;-58
2022/02/22 00:55:43;;;;;;;;;;;5.20;1.00;;;;;;5052582;28;19925;-59
2022/02/22 00:58:09;;;;;;;;;;;5.20;1.00;;;;;;5055684;28;19921;-56
2022/02/22 01:00:36;;;;;;;;;;;5.20;99.90;;;;;;5055699;28;19970;-54
2022/02/22 01:03:04;;;;;;;;;;;5.10;99.90;;;;;;5055389;28;19997;-57
2022/02/22 01:05:30;;;;;;;;;;;5.00;99.90;;;;;;5055865;28;19943;-60
2022/02/22 01:07:57;;;;;;;;;;;5.00;99.90;;;;;;5055669;28;19932;-60
2022/02/22 01:10:24;;;;;;;;;;;5.00;99.90;;;;;;5055394;28;20033;-57
2022/02/22 01:12:50;;;;;;;;;;;4.90;99.90;;;;;;5055243;28;19940;-57
2022/02/22 01:15:17;;;;;;;;;;;4.90;99.90;;;;;;5055227;28;19920;-59
2022/02/22 01:17:44;;;;;;;;;;;4.90;99.90;;;;;;5055767;28;19921;-58
2022/02/22 01:20:12;;;;;;;;;;;4.80;99.90;;;;;;5055694;28;20121;-59
2022/02/22 01:22:40;;;;;;;;;;;4.80;1.00;;;;;;5055007;28;20600;-54
2022/02/22 01:25:08;;;;;;;;;;;4.70;1.00;;;;;;5055058;28;19921;-54
2022/02/22 01:27:34;;;;;;;;;;;4.60;1.00;;;;;;5054964;28;20342;-56
2022/02/22 01:30:01;;;;;;;;;;;4.50;1.00;;;;;;5054822;28;20357;-57
2022/02/22 01:32:28;;;;;;;;;;;4.40;1.00;;;;;;5054423;28;20429;-58
2022/02/22 01:34:54;;;;;;;;;;;4.40;1.00;;;;;;5053852;28;19921;-56
2022/02/22 01:37:22;;;;;;;;;;;4.30;1.00;;;;;;5053889;28;20022;-53
2022/02/22 01:39:48;;;;;;;;;;;4.40;1.00;;;;;;5053680;28;19924;-57
2022/02/22 01:42:15;;;;;;;;;;;4.40;8.50;;;;;;5053455;28;19924;-54
2022/02/22 01:44:42;;;;;;;;;;;4.50;15.90;;;;;;5053414;28;19928;-57
2022/02/22 01:47:11;;;;;;;;;;;4.40;6.20;;;;;;5053291;28;19927;-59
2022/02/22 01:49:38;;;;;;;;;;;4.40;1.00;;;;;;5052777;28;19927;-57
2022/02/22 01:52:05;;;;;;;;;;;4.30;1.00;;;;;;5054018;28;19924;-57
2022/02/22 01:54:33;;;;;;;;;;;4.30;6.00;;;;;;5053162;28;19930;-53
2022/02/22 01:56:59;;;;;;;;;;;4.30;50.30;;;;;;5053654;28;19920;-54
2022/02/22 01:59:26;;;;;;;;;;;4.30;70.90;;;;;;5053151;28;19937;-57
2022/02/22 02:01:52;;;;;;;;;;;4.40;87.40;;;;;;5053259;28;20345;-58
2022/02/22 02:04:19;;;;;;;;;;;4.30;90.40;;;;;;5053315;28;19924;-57
2022/02/22 02:06:46;;;;;;;;;;;4.30;94.00;;;;;;5052719;28;19921;-56
2022/02/22 02:09:13;;;;;;;;;;;4.20;99.90;;;;;;5053207;28;19920;-59
2022/02/22 02:11:45;;;;;;;;;;;4.20;99.90;;;;;;5052876;28;19920;-54
2022/02/22 02:14:12;;;;;;;;;;;4.20;99.90;;;;;;5052926;28;19989;-57
2022/02/22 02:16:38;;;;;;;;;;;4.10;99.90;;;;;;5052423;28;19925;-54
2022/02/22 02:19:05;;;;;;;;;;;4.00;99.90;;;;;;5053035;28;19928;-57
2022/02/22 02:21:32;;;;;;;;;;;4.10;99.90;;;;;;5053016;28;19970;-57
2022/02/22 02:24:09;;;;;;;;;;;4.10;99.90;;;;;;5053668;28;20437;-58
2022/02/22 02:26:35;;;;;;;;;;;4.10;99.90;;;;;;5053604;28;20379;-58
2022/02/22 02:29:02;;;;;;;;;;;4.10;99.90;;;;;;5054294;28;19979;-58
2022/02/22 02:31:28;;;;;;;;;;;4.10;99.90;;;;;;5053142;28;19928;-57
2022/02/22 02:33:55;;;;;;;;;;;4.10;99.90;;;;;;5017280;28;1014513;-58
2022/02/22 02:36:22;;;;;;;;;;;4.10;99.90;;;;;;5053824;28;19927;-57
2022/02/22 02:38:48;;;;;;;;;;;4.10;99.90;;;;;;5054122;28;20367;-58
2022/02/22 02:41:16;;;;;;;;;;;4.10;99.90;;;;;;5055238;28;19947;-58
2022/02/22 02:43:42;;;;;;;;;;;4.10;99.90;;;;;;5054925;28;19921;-57
2022/02/22 02:46:09;;;;;;;;;;;4.10;99.90;;;;;;5054051;28;19924;-57
2022/02/22 02:48:36;;;;;;;;;;;4.10;99.90;;;;;;5053624;28;20299;-60
2022/02/22 02:51:02;;;;;;;;;;;4.10;99.90;;;;;;5053253;28;19971;-57
2022/02/22 02:53:29;;;;;;;;;;;4.10;99.90;;;;;;5053695;28;20405;-59
2022/02/22 02:55:56;;;;;;;;;;;4.10;99.90;;;;;;5053339;28;20398;-56
2022/02/22 02:58:24;;;;;;;;;;;4.10;99.90;;;;;;5053219;28;19932;-58
2022/02/22 03:00:50;;;;;;;;;;;4.10;99.90;;;;;;5053706;28;19975;-59
2022/02/22 03:03:17;;;;;;;;;;;4.00;99.90;;;;;;5053202;28;20329;-58
2022/02/22 03:05:43;;;;;;;;;;;4.00;99.90;;;;;;5052994;28;20536;-55
2022/02/22 03:08:10;;;;;;;;;;;4.00;99.90;;;;;;5052756;28;19921;-59
2022/02/22 03:10:36;;;;;;;;;;;3.90;99.90;;;;;;5052825;28;19928;-57
2022/02/22 03:13:03;;;;;;;;;;;3.90;99.90;;;;;;5053099;28;19925;-58
2022/02/22 03:15:31;;;;;;;;;;;3.90;99.90;;;;;;5053026;28;19994;-57
2022/02/22 03:17:57;;;;;;;;;;;3.90;99.90;;;;;;5052950;28;20019;-57
2022/02/22 03:20:24;;;;;;;;;;;4.00;99.90;;;;;;5052039;28;19924;-54
2022/02/22 03:22:53;;;;;;;;;;;3.90;99.90;;;;;;5052643;28;20269;-57
2022/02/22 03:25:20;;;;;;;;;;;3.90;99.90;;;;;;5052286;28;19971;-56
2022/02/22 03:27:46;;;;;;;;;;;3.90;99.90;;;;;;5052875;28;19928;-56
2022/02/22 03:30:13;;;;;;;;;;;3.90;99.90;;;;;;5052591;28;19920;-58
2022/02/22 03:32:41;;;;;;;;;;;3.90;99.90;;;;;;5052693;28;19963;-56
2022/02/22 03:35:08;;;;;;;;;;;3.80;99.90;;;;;;5052443;28;19927;-58
2022/02/22 03:37:34;;;;;;;;;;;3.80;99.90;;;;;;5052238;28;20304;-59
2022/02/22 03:40:01;;;;;;;;;;;3.80;99.90;;;;;;5052424;28;19967;-57
2022/02/22 03:42:27;;;;;;;;;;;3.80;99.90;;;;;;5052565;28;19924;-56
2022/02/22 03:44:54;;;;;;;;;;;3.90;99.90;;;;;;5052722;28;20322;-56
2022/02/22 03:47:20;;;;;;;;;;;3.90;99.90;;;;;;5052250;28;19966;-56
2022/02/22 03:49:48;;;;;;;;;;;3.80;99.90;;;;;;5052280;28;19920;-60
2022/02/22 03:52:14;;;;;;;;;;;3.80;99.90;;;;;;5052292;28;19920;-60
2022/02/22 03:54:41;;;;;;;;;;;3.80;99.90;;;;;;5051892;28;19985;-58
2022/02/22 03:57:08;;;;;;;;;;;3.80;99.90;;;;;;5052307;28;19921;-57
2022/02/22 03:59:34;;;;;;;;;;;3.80;99.90;;;;;;5051982;28;19947;-57
2022/02/22 04:02:01;;;;;;;;;;;3.80;99.90;;;;;;5052304;28;19947;-60
2022/02/22 04:04:27;;;;;;;;;;;3.80;99.90;;;;;;5052167;28;20334;-58
2022/02/22 04:06:55;;;;;;;;;;;3.80;99.90;;;;;;5052445;28;19947;-55
2022/02/22 04:09:22;;;;;;;;;;;3.70;99.90;;;;;;5052239;28;19925;-55
2022/02/22 04:11:48;;;;;;;;;;;3.70;99.90;;;;;;5052125;28;20023;-57
2022/02/22 04:14:15;;;;;;;;;;;3.70;99.90;;;;;;5052093;28;20303;-56
2022/02/22 04:16:41;;;;;;;;;;;3.70;99.90;;;;;;5051851;28;19939;-58
2022/02/22 04:19:08;;;;;;;;;;;3.70;99.90;;;;;;5052240;28;19967;-59
2022/02/22 04:21:35;;;;;;;;;;;3.70;99.90;;;;;;5052181;28;19920;-56
2022/02/22 04:24:03;;;;;;;;;;;3.70;99.90;;;;;;5052788;28;19928;-57
2022/02/22 04:26:29;;;;;;;;;;;3.60;99.90;;;;;;5054392;28;19920;-57
2022/02/22 04:29:00;;;;;;;;;;;3.60;99.90;;;;;;5053755;28;20338;-57
2022/02/22 04:31:26;;;;;;;;;;;3.60;99.90;;;;;;5053113;28;19966;-59
2022/02/22 04:33:53;;;;;;;;;;;3.60;99.90;;;;;;5054249;28;20002;-59
2022/02/22 04:36:20;;;;;;;;;;;3.60;99.90;;;;;;5057629;28;19996;-56
2022/02/22 04:38:46;;;;;;;;;;;3.60;99.90;;;;;;5056332;28;19920;-59
2022/02/22 04:41:14;;;;;;;;;;;3.60;99.90;;;;;;5056224;28;19925;-53
2022/02/22 04:43:40;;;;;;;;;;;3.60;99.90;;;;;;5051791;28;20412;-56
2022/02/22 04:46:07;;;;;;;;;;;3.70;99.90;;;;;;5051539;28;19975;-55
2022/02/22 04:48:33;;;;;;;;;;;3.70;99.90;;;;;;5051552;28;19931;-55
2022/02/22 04:51:00;;;;;;;;;;;3.70;99.90;;;;;;5051698;28;19924;-55
2022/02/22 04:53:27;;;;;;;;;;;3.70;99.90;;;;;;5051844;28;19967;-56
2022/02/22 04:55:53;;;;;;;;;;;3.70;99.90;;;;;;5051116;28;19951;-56
2022/02/22 04:58:21;;;;;;;;;;;3.70;99.90;;;;;;5051728;28;19929;-52
2022/02/22 05:00:48;;;;;;;;;;;3.70;99.90;;;;;;5051530;28;19967;-56
2022/02/22 05:03:14;;;;;;;;;;;3.70;99.90;;;;;;5051361;28;19925;-57
2022/02/22 05:05:41;;;;;;;;;;;3.70;99.90;;;;;;5051607;28;19982;-53
2022/02/22 05:08:07;;;;;;;;;;;3.70;99.90;;;;;;5051254;28;19983;-58
2022/02/22 05:10:34;;;;;;;;;;;3.70;99.90;;;;;;5051165;28;19921;-57
2022/02/22 05:13:00;;;;;;;;;;;3.60;99.90;;;;;;5051667;28;19921;-60
2022/02/22 05:15:32;;;;;;;;;;;3.60;99.90;;;;;;5051593;28;20350;-58
2022/02/22 05:17:58;;;;;;;;;;;3.60;99.90;;;;;;5051993;28;19931;-57
2022/02/22 05:20:25;;;;;;;;;;;3.60;99.90;;;;;;5051904;28;19943;-56
2022/02/22 05:22:51;;;;;;;;;;;3.60;99.90;;;;;;5052285;28;19921;-56
2022/02/22 05:25:18;;;;;;;;;;;3.70;99.90;;;;;;5051708;28;19920;-57
2022/02/22 05:27:45;;;;;;;;;;;3.60;99.90;;;;;;5051620;28;19947;-64
2022/02/22 05:30:13;;;;;;;;;;;3.70;99.90;;;;;;5056392;28;19965;-56
2022/02/22 05:32:41;;;;;;;;;;;3.70;99.90;;;;;;5054793;28;19975;-54
2022/02/22 05:35:08;;;;;;;;;;;3.70;99.90;;;;;;5051894;28;19990;-56
2022/02/22 05:37:35;;;;;;;;;;;3.70;99.90;;;;;;5052364;28;19924;-55
2022/02/22 05:40:02;;;;;;;;;;;3.70;99.90;;;;;;5052141;28;20008;-59
2022/02/22 05:42:29;;;;;;;;;;;3.70;99.90;;;;;;5052913;28;19921;-52
2022/02/22 05:44:56;;;;;;;;;;;3.70;99.90;;;;;;5054692;28;20008;-56
2022/02/22 05:47:22;;;;;;;;;;;3.70;99.90;;;;;;5054822;28;19925;-52
2022/02/22 05:49:50;;;;;;;;;;;3.70;99.90;;;;;;5054667;28;19924;-50
2022/02/22 05:52:17;;;;;;;;;;;3.70;99.90;;;;;;5054953;28;19990;-55
2022/02/22 05:54:43;;;;;;;;;;;3.70;99.90;;;;;;5054973;28;19978;-58
2022/02/22 05:57:10;;;;;;;;;;;3.70;99.90;;;;;;5056021;28;19921;-56
2022/02/22 05:59:37;;;;;;;;;;;3.80;99.90;;;;;;5055667;28;19928;-57
2022/02/22 06:02:03;;;;;;;;;;;3.80;99.90;;;;;;5055361;28;19932;-53
2022/02/22 06:04:30;;;;;;;;;;;3.80;99.90;;;;;;5055207;28;19921;-56
2022/02/22 06:06:59;;;;;;;;;;;3.80;99.90;;;;;;5054988;28;19928;-56
2022/02/22 06:09:25;;;;;;;;;;;3.70;99.90;;;;;;5054274;28;19924;-56
2022/02/22 06:11:52;;;;;;;;;;;3.70;99.90;;;;;;5053614;28;19962;-59
2022/02/22 06:14:18;;;;;;;;;;;3.70;99.90;;;;;;5054584;28;19925;-56
2022/02/22 06:16:45;;;;;;;;;;;3.70;99.90;;;;;;5054331;28;19974;-56
2022/02/22 06:19:11;;;;;;;;;;;3.60;99.90;;;;;;5054658;28;20382;-57
2022/02/22 06:21:38;;;;;;;;;;;3.60;99.90;;;;;;5054115;28;20387;-61
2022/02/22 06:24:06;;;;;;;;;;;3.50;99.90;;;;;;5050006;28;19943;-61
2022/02/22 06:26:32;;;;;;;;;;;3.50;99.90;;;;;;5055500;28;19942;-60
2022/02/22 06:29:00;;;;;;;;;;;3.50;99.90;;;;;;5073714;28;20420;-59
2022/02/22 06:31:27;;;;;;;;;;;3.40;99.90;;;;;;5072697;28;20562;-61
2022/02/22 06:33:53;;;;;;;;;;;3.40;99.90;;;;;;5072275;28;20395;-61
2022/02/22 06:36:20;;;;;;;;;;;3.40;99.90;;;;;;5073282;28;20011;-60
2022/02/22 06:38:46;;;;;;;;;;;3.40;99.90;;;;;;5073341;28;19920;-60
2022/02/22 06:41:14;;;;;;;;;;;3.40;99.90;;;;;;5072977;28;20515;-61
2022/02/22 06:43:41;;;;;;;;;;;3.40;99.90;;;;;;5072952;28;20386;-60
2022/02/22 06:46:07;;;;;;;;;;;3.40;99.90;;;;;;5072940;28;19928;-61
2022/02/22 06:48:34;;;;;;;;;;;3.40;99.90;;;;;;5073568;28;19931;-62
2022/02/22 06:51:00;;;;;;;;;;;3.40;99.90;;;;;;5073205;28;19920;-61
2022/02/22 06:53:27;;;;;;;;;;;3.40;99.90;;;;;;5072166;28;19920;-62
2022/02/22 06:55:53;;;;;;;;;;;3.40;99.90;;;;;;5072618;28;20267;-61
2022/02/22 06:58:21;;;;;;;;;;;3.40;99.90;;;;;;5073313;28;19975;-64
2022/02/22 07:00:50;;;;;;;;;;;3.40;99.90;;;;;;5073621;28;19921;-62
2022/02/22 07:03:17;;;;;;;;;;;3.40;99.90;;;;;;5072687;28;20409;-63
2022/02/22 07:05:44;;;;;;;;;;;3.40;99.90;;;;;;5073322;28;19993;-64
2022/02/22 07:08:10;;;;;;;;;;;3.40;99.90;;;;;;5073090;28;19921;-62
2022/02/22 07:10:37;;;;;;;;;;;3.40;99.90;;;;;;5072831;28;19932;-62
2022/02/22 07:13:03;;;;;;;;;;;3.40;99.90;;;;;;5072895;28;19932;-62
2022/02/22 07:15:31;;;;;;;;;;;3.40;99.90;;;;;;5072420;28;20345;-61
2022/02/22 07:17:58;;;;;;;;;;;3.40;99.90;;;;;;5072698;28;19927;-59
2022/02/22 07:20:26;;;;;;;;;;;3.40;99.90;;;;;;5072559;28;19920;-58
2022/02/22 07:22:55;;;;;;;;;;;3.40;99.90;;;;;;5072224;28;19921;-59
2022/02/22 07:25:22;;;;;;;;;;;3.40;99.90;;;;;;5072370;28;19978;-59
2022/02/22 07:27:48;;;;;;;;;;;3.40;99.90;;;;;;5072061;28;19966;-60
2022/02/22 07:30:16;;;;;;;;;;;3.40;99.90;;;;;;5072513;28;19974;-60
2022/02/22 07:32:44;;;;;;;;;;;3.40;99.90;;;;;;5072012;28;19947;-59
2022/02/22 07:35:11;;;;;;;;;;;3.40;99.90;;;;;;5072113;28;20368;-65
2022/02/22 07:37:38;;;;;;;;;;;3.60;99.90;;;;;;5072380;28;19978;-65
2022/02/22 07:40:05;;;;;;;;;;;3.80;99.90;;;;;;5071861;28;19927;-66
2022/02/22 07:42:32;;;;;;;;;;;4.00;99.90;;;;;;5072278;28;19920;-70
2022/02/22 07:44:59;;;;;;;;;;;4.20;99.90;;;;;;5071888;28;19921;-69
2022/02/22 07:47:25;;;;;;;;;;;4.10;99.90;;;;;;5072251;28;19966;-62
2022/02/22 07:49:53;;;;;;;;;;;4.10;99.90;;;;;;5072139;28;19921;-60
2022/02/22 07:52:20;;;;;;;;;;;4.00;99.90;;;;;;5072024;28;19925;-63
2022/02/22 07:54:47;;;;;;;;;;;4.00;99.90;;;;;;5072702;28;19920;-61
2022/02/22 07:57:13;;;;;;;;;;;4.00;99.90;;;;;;5072266;28;19924;-61
2022/02/22 07:59:40;;;;;;;;;;;4.00;99.90;;;;;;5072173;28;19920;-61
2022/02/22 08:02:06;;;;;;;;;;;4.00;99.90;;;;;;5072268;28;19928;-60
2022/02/22 08:04:33;;;;;;;;;;;4.10;99.90;;;;;;5071500;28;19925;-61
2022/02/22 08:07:01;;;;;;;;;;;4.20;99.90;;;;;;5072690;28;19928;-59
2022/02/22 08:09:27;;;;;;;;;;;4.30;99.90;;;;;;5072793;28;19927;-59
2022/02/22 08:11:54;;;;;;;;;;;4.30;99.90;;;;;;5071634;28;19969;-60
2022/02/22 08:14:20;;;;;;;;;;;4.40;99.90;;;;;;5071259;28;19924;-58
2022/02/22 08:16:47;;;;;;;;;;;4.50;99.90;;;;;;5071840;28;20425;-60
2022/02/22 08:19:14;;;;;;;;;;;4.50;99.90;;;;;;5072300;28;20297;-60
2022/02/22 08:21:40;;;;;;;;;;;4.50;99.90;;;;;;5072013;28;20011;-58
2022/02/22 08:24:08;;;;;;;;;;;4.50;99.90;;;;;;5072493;28;20276;-59
2022/02/22 08:26:35;;;;;;;;;;;4.60;99.90;;;;;;5071745;28;20377;-60
2022/02/22 08:29:01;;;;;;;;;;;4.60;99.90;;;;;;5071991;28;19928;-60
2022/02/22 08:31:28;;;;;;;;;;;4.60;99.90;;;;;;5070669;28;19924;-58
2022/02/22 08:33:58;;;;;;;;;;;4.70;99.90;;;;;;5069091;28;19944;-60
2022/02/22 08:36:25;;;;;;;;;;;4.70;99.90;;;;;;5071734;28;20310;-61
2022/02/22 08:38:51;;;;;;;;;;;4.80;99.90;;;;;;5070950;28;19920;-60
2022/02/22 08:41:20;;;;;;;;;;;4.80;99.90;;;;;;5071389;28;19998;-61
2022/02/22 08:43:46;;;;;;;;;;;4.90;99.90;;;;;;5070965;28;20371;-60
2022/02/22 08:46:13;;;;;;;;;;;5.00;99.90;;;;;;5071511;28;19974;-60
2022/02/22 08:48:39;;;;;;;;;;;5.10;99.90;;;;;;5072158;28;19920;-61
2022/02/22 08:51:06;;;;;;;;;;;5.20;99.90;;;;;;5071019;28;19920;-60
2022/02/22 08:53:32;;;;;;;;;;;5.20;99.90;;;;;;5071107;28;19927;-59
2022/02/22 08:56:00;;;;;;;;;;;5.30;99.90;;;;;;5071243;28;19920;-57
2022/02/22 08:58:28;;;;;;;;;;;5.40;99.90;;;;;;5071720;28;19924;-58
2022/02/22 09:00:55;;;;;;;;;;;5.50;99.90;;;;;;5071289;28;19924;-57
2022/02/22 09:03:21;;;;;;;;;;;5.60;99.90;;;;;;5070805;28;19920;-57
2022/02/22 09:05:48;;;;;;;;;;;5.60;99.90;;;;;;5071188;28;20019;-61
2022/02/22 09:08:15;;;;;;;;;;;5.70;99.90;;;;;;5070976;28;19924;-61
2022/02/22 09:10:44;;;;;;;;;;;5.80;99.90;;;;;;5071151;28;19927;-62
2022/02/22 09:13:11;;;;;;;;;;;5.80;92.70;;;;;;5070651;28;20290;-64
2022/02/22 09:15:39;;;;;;;;;;;5.80;95.10;;;;;;5071033;28;19920;-64
2022/02/22 09:18:06;;;;;;;;;;;5.80;90.30;;;;;;5073684;28;19920;-63
2022/02/22 09:20:32;;;;;;;;;;;6.00;99.90;;;;;;5075085;28;19920;-64
2022/02/22 09:22:59;;;;;;;;;;;6.00;80.80;;;;;;5074988;28;19982;-64
2022/02/22 09:25:32;;;;;;;;;;;6.10;58.80;;;;;;5074490;28;19925;-63
2022/02/22 09:27:59;;;;;;;;;;;6.00;42.60;;;;;;5075074;28;20283;-57
2022/02/22 09:30:26;;;;;;;;;;;6.00;49.70;;;;;;5074991;28;20288;-62
2022/02/22 09:32:54;;;;;;;;;;;6.00;56.00;;;;;;5075076;28;20319;-62
2022/02/22 09:35:22;;;;;;;;;;;5.90;57.90;;;;;;5075146;28;20382;-59
2022/02/22 09:37:48;;;;;;;;;;;6.00;91.70;;;;;;5074636;28;19935;-62
2022/02/22 09:40:15;;;;;;;;;;;6.00;68.40;;;;;;5074267;28;20419;-64
2022/02/22 09:42:42;;;;;;;;;;;5.90;53.90;;;;;;5074993;28;19946;-61
2022/02/22 09:45:09;;;;;;;;;;;5.90;56.50;;;;;;5074679;28;19927;-61
2022/02/22 09:47:36;;;;;;;;;;;5.80;37.40;;;;;;5074576;28;19928;-60
2022/02/22 09:50:05;;;;;;;;;;;5.80;37.20;;;;;;5074209;28;20020;-61
2022/02/22 09:52:33;;;;;;;;;;;5.80;53.30;;;;;;5074491;28;19920;-62
2022/02/22 09:54:59;;;;;;;;;;;5.80;47.20;;;;;;5073568;28;20325;-62
2022/02/22 09:57:26;;;;;;;;;;;5.80;33.80;;;;;;5074148;28;19956;-61
2022/02/22 09:59:53;;;;;;;;;;;6.00;54.80;;;;;;5073804;28;19927;-62
2022/02/22 10:02:19;;;;;;;;;;;6.10;1.00;;;;;;5073510;28;20375;-63
2022/02/22 10:04:48;;;;;;;;;;;6.20;4.90;;;;;;5073612;28;20386;-61
2022/02/22 10:07:17;;;;;;;;;;;6.20;1.00;;;;;;5073908;28;19928;-63
2022/02/22 10:09:51;;;;;;;;;;;6.20;1.00;;;;;;5073575;28;20015;-57
2022/02/22 10:12:27;;;;;;;;;;;6.30;1.00;;;;;;5074006;28;19924;-63
2022/02/22 10:14:55;;;;;;;;;;;6.30;1.00;;;;;;5073456;28;19926;-62
2022/02/22 10:17:21;;;;;;;;;;;6.40;1.00;;;;;;5073675;28;19927;-61
2022/02/22 10:19:56;;;;;;;;;;;6.50;1.00;;;;;;5073924;28;20287;-61
2022/02/22 10:22:25;;;;;;;;;;;6.50;1.00;;;;;;5073620;28;19978;-59
2022/02/22 10:25:02;;;;;;;;;;;6.60;1.00;;;;;;5074272;28;19975;-57
2022/02/22 10:27:28;;;;;;;;;;;6.70;1.00;;;;;;5072979;28;19940;-60
2022/02/22 10:29:55;;;;;;;;;;;6.80;1.00;;;;;;5073470;28;19947;-62
2022/02/22 10:32:25;;;;;;;;;;;6.70;1.00;;;;;;5073250;28;20371;-60
2022/02/22 10:34:52;;;;;;;;;;;6.90;1.00;;;;;;5073047;28;19928;-61
2022/02/22 10:37:19;;;;;;;;;;;6.90;1.00;;;;;;5073700;28;19924;-61
2022/02/22 10:39:48;;;;;;;;;;;7.00;1.00;;;;;;5073271;28;20019;-60
2022/02/22 10:42:14;;;;;;;;;;;7.00;1.00;;;;;;5066945;28;20566;-61
2022/02/22 10:44:41;;;;;;;;;;;7.10;1.00;;;;;;5064603;28;19920;-60
2022/02/22 10:47:10;;;;;;;;;;;7.10;1.00;;;;;;5072318;28;20341;-69
2022/02/22 10:49:37;;;;;;;;;;;7.20;1.00;;;;;;5070457;28;20064;-67
2022/02/22 10:52:05;;;;;;;;;;;7.30;1.00;;;;;;5052962;28;19951;-68
2022/02/22 10:54:31;;;;;;;;;;;7.30;1.00;;;;;;5052717;28;20402;-63
2022/02/22 10:56:59;;;;;;;;;;;7.30;1.00;;;;;;5052489;28;19921;-63
2022/02/22 10:59:26;;;;;;;;;;;7.30;1.00;;;;;;5052143;28;19924;-63
2022/02/22 11:01:53;;;;;;;;;;;7.30;1.00;;;;;;5053613;28;19921;-63
2022/02/22 11:04:20;;;;;;;;;;;7.30;1.00;;;;;;5052918;28;19928;-65
2022/02/22 11:06:47;;;;;;;;;;;7.10;1.00;;;;;;5053062;28;19921;-62
2022/02/22 11:09:14;;;;;;;;;;;7.10;1.00;;;;;;5053321;28;19920;-63
2022/02/22 11:11:42;;;;;;;;;;;7.20;1.00;;;;;;5053366;28;19920;-61
2022/02/22 11:14:13;;;;;;;;;;;7.10;1.00;;;;;;5052431;28;20324;-60
2022/02/22 11:16:41;;;;;;;;;;;7.20;1.00;;;;;;5052291;28;19921;-61
2022/02/22 11:19:15;;;;;;;;;;;7.20;1.00;;;;;;5052521;28;19928;-60
2022/02/22 11:21:43;;;;;;;;;;;7.30;1.00;;;;;;5052563;28;19968;-58
2022/02/22 11:24:10;;;;;;;;;;;7.30;1.00;;;;;;5051986;28;20521;-56
2022/02/22 11:26:45;;;;;;;;;;;7.30;1.00;;;;;;5052923;28;19971;-56
2022/02/22 11:29:13;;;;;;;;;;;7.40;1.00;;;;;;5052226;28;20011;-58
2022/02/22 11:31:40;;;;;;;;;;;7.30;1.00;;;;;;5053449;28;20007;-59
2022/02/22 11:34:07;;;;;;;;;;;7.30;1.00;;;;;;5052296;28;19947;-59
2022/02/22 11:36:35;;;;;;;;;;;7.30;1.00;;;;;;5057083;28;20267;-59
2022/02/22 11:39:02;;;;;;;;;;;7.30;1.00;;;;;;5052888;28;19921;-60
2022/02/22 11:41:30;;;;;;;;;;;7.30;1.00;;;;;;5060274;28;19920;-59
2022/02/22 11:43:59;;;;;;;;;;;7.40;1.00;;;;;;5072187;28;20294;-63
2022/02/22 11:46:37;;;;;;;;;;;7.50;1.00;;;;;;5071930;28;19931;-64
2022/02/22 11:49:05;;;;;;;;;;;7.50;1.00;;;;;;5072199;28;19928;-64
2022/02/22 11:51:39;;;;;;;;;;;7.50;1.00;;;;;;5071965;28;19974;-62
2022/02/22 11:54:10;;;;;;;;;;;7.50;1.00;;;;;;5071346;28;20405;-63
2022/02/22 11:56:36;;;;;;;;;;;7.50;1.00;;;;;;5071567;28;19920;-62
2022/02/22 11:59:13;;;;;;;;;;;7.50;1.00;;;;;;5072120;28;19931;-61
2022/02/22 12:01:44;;;;;;;;;;;7.30;1.00;;;;;;5072014;28;19920;-63
2022/02/22 12:04:22;;;;;;;;;;;7.30;1.00;;;;;;5071327;28;19967;-59
2022/02/22 12:06:49;;;;;;;;;;;7.30;1.00;;;;;;5072017;28;19927;-62
2022/02/22 12:09:16;;;;;;;;;;;7.30;1.00;;;;;;5073118;28;20291;-63
2022/02/22 12:11:42;;;;;;;;;;;7.30;1.00;;;;;;5072429;28;19999;-60
2022/02/22 12:14:14;;;;;;;;;;;7.30;1.00;;;;;;5071632;28;20306;-62
2022/02/22 12:16:45;;;;;;;;;;;7.30;1.00;;;;;;5071552;28;19931;-60
2022/02/22 12:19:14;;;;;;;;;;;7.30;1.00;;;;;;5072472;28;19920;-60
2022/02/22 12:21:44;;;;;;;;;;;7.30;1.00;;;;;;5072151;28;19927;-60
2022/02/22 12:24:13;;;;;;;;;;;7.30;1.00;;;;;;5071592;28;20251;-62
2022/02/22 12:26:39;;;;;;;;;;;7.40;1.00;;;;;;5072243;28;19930;-63
2022/02/22 12:29:08;;;;;;;;;;;7.40;1.00;;;;;;5071771;28;19971;-62
2022/02/22 12:31:35;;;;;;;;;;;7.40;1.00;;;;;;5071788;28;19920;-63
2022/02/22 12:34:04;;;;;;;;;;;7.40;1.00;;;;;;5070718;28;19920;-64
2022/02/22 12:36:31;;;;;;;;;;;7.40;1.00;;;;;;5051513;28;20330;-63
2022/02/22 12:38:58;;;;;;;;;;;7.30;4.70;;;;;;5051992;28;19966;-64
2022/02/22 12:41:26;;;;;;;;;;;7.30;68.30;;;;;;5051346;28;19921;-64
2022/02/22 12:43:53;;;;;;;;;;;7.30;48.30;;;;;;5051087;28;19982;-61
2022/02/22 12:46:22;;;;;;;;;;;7.30;30.70;;;;;;5051514;28;19921;-62
2022/02/22 12:48:48;;;;;;;;;;;7.20;48.10;;;;;;5051505;28;19921;-60
2022/02/22 12:51:22;;;;;;;;;;;7.10;90.30;;;;;;5052690;28;20038;-61
2022/02/22 12:53:55;;;;;;;;;;;7.00;99.90;;;;;;5055571;28;20360;-64
2022/02/22 12:56:27;;;;;;;;;;;6.90;99.90;;;;;;5055662;28;20383;-61
2022/02/22 12:58:53;;;;;;;;;;;6.90;99.90;;;;;;5056117;28;19974;-58
2022/02/22 13:01:20;;;;;;;;;;;6.80;99.90;;;;;;5056178;28;19940;-60
2022/02/22 13:03:48;;;;;;;;;;;6.70;99.90;;;;;;5055317;28;19920;-57
2022/02/22 13:06:16;;;;;;;;;;;6.70;99.90;;;;;;5055326;28;20295;-63
2022/02/22 13:08:45;;;;;;;;;;;6.70;99.90;;;;;;5055447;28;19936;-61
2022/02/22 13:11:12;;;;;;;;;;;6.70;99.90;;;;;;5055858;28;20385;-60
2022/02/22 13:13:38;;;;;;;;;;;6.60;99.90;;;;;;5056277;28;19928;-60
2022/02/22 13:16:09;;;;;;;;;;;6.60;99.90;;;;;;5058550;28;19924;-59
2022/02/22 13:18:35;;;;;;;;;;;6.60;99.90;;;;;;5058203;28;19963;-59
2022/02/22 13:21:11;;;;;;;;;;;6.70;99.90;;;;;;5055599;28;19920;-60
2022/02/22 13:23:37;;;;;;;;;;;6.80;99.90;;;;;;5054711;28;20006;-61
2022/02/22 13:26:05;;;;;;;;;;;6.70;99.90;;;;;;5055015;28;20055;-57
2022/02/22 13:28:33;;;;;;;;;;;6.70;99.90;;;;;;5055252;28;20015;-57
2022/02/22 13:31:00;;;;;;;;;;;6.60;99.90;;;;;;5054668;28;19920;-58
2022/02/22 13:33:26;;;;;;;;;;;6.70;99.90;;;;;;5054941;28;20000;-61
2022/02/22 13:36:04;;;;;;;;;;;6.80;99.90;;;;;;5054449;28;20370;-59
2022/02/22 13:38:31;;;;;;;;;;;6.80;99.90;;;;;;5055371;28;19921;-59
2022/02/22 13:41:07;;;;;;;;;;;6.80;99.90;;;;;;5054479;28;20430;-57
2022/02/22 13:43:34;;;;;;;;;;;6.90;99.90;;;;;;5054317;28;19921;-57
2022/02/22 13:46:01;;;;;;;;;;;6.90;99.90;;;;;;5054367;28;20015;-61
2022/02/22 13:48:29;;;;;;;;;;;7.00;99.90;;;;;;5054333;28;19925;-59
2022/02/22 13:51:02;;;;;;;;;;;7.00;99.90;;;;;;5054589;28;19967;-57
2022/02/22 13:53:30;;;;;;;;;;;7.10;99.90;;;;;;5053774;28;20324;-63
2022/02/22 13:55:58;;;;;;;;;;;7.10;99.90;;;;;;5054031;28;20425;-65
2022/02/22 13:58:28;;;;;;;;;;;7.10;99.90;;;;;;5054064;28;19921;-59
2022/02/22 14:00:56;;;;;;;;;;;7.10;99.90;;;;;;5054188;28;19925;-60
2022/02/22 14:03:22;;;;;;;;;;;7.20;99.90;;;;;;5053438;28;19928;-58
2022/02/22 14:05:49;;;;;;;;;;;7.30;99.90;;;;;;5053794;28;20406;-61
2022/02/22 14:08:15;;;;;;;;;;;7.30;99.90;;;;;;5054390;28;19924;-60
2022/02/22 14:10:45;;;;;;;;;;;7.30;99.90;;;;;;5053983;28;19921;-60
2022/02/22 14:13:12;;;;;;;;;;;7.40;99.90;;;;;;5053552;28;20272;-60
2022/02/22 14:15:40;;;;;;;;;;;7.50;99.90;;;;;;5054040;28;19925;-61
2022/02/22 14:18:07;;;;;;;;;;;7.50;99.90;;;;;;5053597;28;20489;-61
2022/02/22 14:20:33;;;;;;;;;;;7.50;99.90;;;;;;5053912;28;19921;-57
2022/02/22 14:23:00;;;;;;;;;;;7.50;99.90;;;;;;5058437;28;19960;-57
2022/02/22 14:25:28;;;;;;;;;;;7.60;99.90;;;;;;5073459;28;19924;-53
2022/02/22 14:27:55;;;;;;;;;;;7.60;99.90;;;;;;5073193;28;19920;-55
2022/02/22 14:30:22;;;;;;;;;;;7.70;99.90;;;;;;5073493;28;19928;-56
2022/02/22 14:32:50;;;;;;;;;;;7.70;99.90;;;;;;5073541;28;19924;-63
2022/02/22 14:35:17;;;;;;;;;;;7.80;99.90;;;;;;5073183;28;19920;-65